sensor_id;sensor_type;location;lat;lon;timestamp;temperature;humidity
19435;DHT22;9853;50.848;4.108;2023-05-10T00:01:26;14.50;99.90
19435;DHT22;9853;50.848;4.108;2023-05-10T00:03:27;14.50;99.90
19435;DHT22;9853;50.848;4.108;2023-05-10T00:05:28;14.50;99.90
19435;DHT22;9853;50.848;4.108;2023-05-10T00:07:29;14.40;99.90
19435;DHT22;9853;50.848;4.108;2023-05-10T00:09:30;14.40;99.90
19435;DHT22;9853;50.848;4.108;2023-05-10T00:11:30;14.40;99.90
19435;DHT22;9853;50.848;4.108;2023-05-10T00:13:31;14.50;99.90
19435;DHT22;9853;50.848;4.108;2023-05-10T00:15:32;14.60;99.90
19435;DHT22;9853;50.848;4.108;2023-05-10T00:17:35;14.60;99.90
19435;DHT22;9853;50.848;4.108;2023-05-10T00:19:35;14.60;99.90
19435;DHT22;9853;50.848;4.108;2023-05-10T00:21:36;14.60;99.90
19435;DHT22;9853;50.848;4.108;2023-05-10T00:23:38;14.50;99.90
19435;DHT22;9853;50.848;4.108;2023-05-10T00:25:39;14.50;99.90
19435;DHT22;9853;50.848;4.108;2023-05-10T00:27:39;14.50;99.90
19435;DHT22;9853;50.848;4.108;2023-05-10T00:29:40;14.40;99.90
19435;DHT22;9853;50.848;4.108;2023-05-10T00:31:42;14.40;99.90
19435;DHT22;9853;50.848;4.108;2023-05-10T00:33:43;14.40;99.90
19435;DHT22;9853;50.848;4.108;2023-05-10T00:35:45;14.30;99.90
19435;DHT22;9853;50.848;4.108;2023-05-10T00:37:45;14.30;99.90
19435;DHT22;9853;50.848;4.108;2023-05-10T00:39:46;14.30;99.90
19435;DHT22;9853;50.848;4.108;2023-05-10T00:41:47;14.30;99.90
19435;DHT22;9853;50.848;4.108;2023-05-10T00:43:48;14.30;99.90
19435;DHT22;9853;50.848;4.108;2023-05-10T00:45:49;14.20;99.90
19435;DHT22;9853;50.848;4.108;2023-05-10T00:47:51;14.20;99.90
19435;DHT22;9853;50.848;4.108;2023-05-10T00:49:55;14.20;99.90
19435;DHT22;9853;50.848;4.108;2023-05-10T00:51:56;14.20;99.90
19435;DHT22;9853;50.848;4.108;2023-05-10T00:53:58;14.20;99.90
19435;DHT22;9853;50.848;4.108;2023-05-10T00:55:59;14.20;99.90
19435;DHT22;9853;50.848;4.108;2023-05-10T00:58:00;14.20;99.90
19435;DHT22;9853;50.848;4.108;2023-05-10T01:00:03;14.20;99.90
19435;DHT22;9853;50.848;4.108;2023-05-10T01:02:04;14.30;99.90
19435;DHT22;9853;50.848;4.108;2023-05-10T01:04:05;14.40;99.90
19435;DHT22;9853;50.848;4.108;2023-05-10T01:06:06;14.40;99.90
19435;DHT22;9853;50.848;4.108;2023-05-10T01:08:07;14.40;99.90
19435;DHT22;9853;50.848;4.108;2023-05-10T01:10:09;14.50;99.90
19435;DHT22;9853;50.848;4.108;2023-05-10T01:12:11;14.50;99.90
19435;DHT22;9853;50.848;4.108;2023-05-10T01:14:12;14.50;99.90
19435;DHT22;9853;50.848;4.108;2023-05-10T01:16:15;14.50;99.90
19435;DHT22;9853;50.848;4.108;2023-05-10T01:18:18;14.30;99.90
19435;DHT22;9853;50.848;4.108;2023-05-10T01:20:21;14.40;99.90
19435;DHT22;9853;50.848;4.108;2023-05-10T01:32:29;14.20;99.90
19435;DHT22;9853;50.848;4.108;2023-05-10T01:35:03;14.20;99.90
19435;DHT22;9853;50.848;4.108;2023-05-10T01:37:13;14.30;99.90
19435;DHT22;9853;50.848;4.108;2023-05-10T01:39:32;14.30;99.90
19435;DHT22;9853;50.848;4.108;2023-05-10T01:43:58;14.30;99.90
19435;DHT22;9853;50.848;4.108;2023-05-10T01:46:05;14.30;99.90
19435;DHT22;9853;50.848;4.108;2023-05-10T01:48:11;14.30;99.90
19435;DHT22;9853;50.848;4.108;2023-05-10T01:50:22;14.40;99.90
19435;DHT22;9853;50.848;4.108;2023-05-10T01:52:33;14.40;99.90
19435;DHT22;9853;50.848;4.108;2023-05-10T01:54:44;14.50;99.90
19435;DHT22;9853;50.848;4.108;2023-05-10T01:56:58;14.50;99.90
19435;DHT22;9853;50.848;4.108;2023-05-10T01:59:06;14.50;99.90
19435;DHT22;9853;50.848;4.108;2023-05-10T02:01:10;14.40;99.90
19435;DHT22;9853;50.848;4.108;2023-05-10T02:03:12;14.30;99.90
19435;DHT22;9853;50.848;4.108;2023-05-10T02:05:15;14.30;99.90
19435;DHT22;9853;50.848;4.108;2023-05-10T02:07:17;14.50;99.90
19435;DHT22;9853;50.848;4.108;2023-05-10T02:09:19;14.40;99.90
19435;DHT22;9853;50.848;4.108;2023-05-10T02:11:21;14.50;99.90
19435;DHT22;9853;50.848;4.108;2023-05-10T02:13:24;14.60;99.90
19435;DHT22;9853;50.848;4.108;2023-05-10T02:15:26;14.50;99.90
19435;DHT22;9853;50.848;4.108;2023-05-10T02:17:28;14.60;99.90
19435;DHT22;9853;50.848;4.108;2023-05-10T02:19:32;14.70;99.90
19435;DHT22;9853;50.848;4.108;2023-05-10T02:21:33;14.60;99.90
19435;DHT22;9853;50.848;4.108;2023-05-10T02:23:35;14.60;99.90
19435;DHT22;9853;50.848;4.108;2023-05-10T02:25:37;14.70;99.90
19435;DHT22;9853;50.848;4.108;2023-05-10T02:27:41;14.60;99.90
19435;DHT22;9853;50.848;4.108;2023-05-10T02:29:44;14.60;99.90
19435;DHT22;9853;50.848;4.108;2023-05-10T02:31:46;14.60;99.90
19435;DHT22;9853;50.848;4.108;2023-05-10T02:33:48;14.50;99.90
19435;DHT22;9853;50.848;4.108;2023-05-10T02:35:50;14.70;99.90
19435;DHT22;9853;50.848;4.108;2023-05-10T02:37:52;14.70;99.90
19435;DHT22;9853;50.848;4.108;2023-05-10T02:39:55;14.60;99.90
19435;DHT22;9853;50.848;4.108;2023-05-10T02:41:57;14.60;99.90
19435;DHT22;9853;50.848;4.108;2023-05-10T02:44:00;14.50;99.90
19435;DHT22;9853;50.848;4.108;2023-05-10T02:46:03;14.70;99.90
19435;DHT22;9853;50.848;4.108;2023-05-10T02:48:04;14.50;99.90
19435;DHT22;9853;50.848;4.108;2023-05-10T02:50:06;14.50;99.90
19435;DHT22;9853;50.848;4.108;2023-05-10T02:52:08;14.50;99.90
19435;DHT22;9853;50.848;4.108;2023-05-10T02:54:14;14.50;99.90
19435;DHT22;9853;50.848;4.108;2023-05-10T02:56:25;14.50;99.90
19435;DHT22;9853;50.848;4.108;2023-05-10T02:58:26;14.70;99.90
19435;DHT22;9853;50.848;4.108;2023-05-10T03:00:28;14.60;99.90
19435;DHT22;9853;50.848;4.108;2023-05-10T03:02:29;14.50;99.90
19435;DHT22;9853;50.848;4.108;2023-05-10T03:04:31;14.60;99.90
19435;DHT22;9853;50.848;4.108;2023-05-10T03:06:32;14.60;99.90
19435;DHT22;9853;50.848;4.108;2023-05-10T03:08:33;14.70;99.90
19435;DHT22;9853;50.848;4.108;2023-05-10T03:10:41;14.70;99.90
19435;DHT22;9853;50.848;4.108;2023-05-10T03:15:36;14.80;99.90
19435;DHT22;9853;50.848;4.108;2023-05-10T03:17:43;14.70;99.90
19435;DHT22;9853;50.848;4.108;2023-05-10T03:19:58;14.50;99.90
19435;DHT22;9853;50.848;4.108;2023-05-10T03:22:04;14.60;99.90
19435;DHT22;9853;50.848;4.108;2023-05-10T03:24:10;14.40;99.90
19435;DHT22;9853;50.848;4.108;2023-05-10T03:26:18;14.50;99.90
19435;DHT22;9853;50.848;4.108;2023-05-10T03:28:21;14.40;99.90
19435;DHT22;9853;50.848;4.108;2023-05-10T03:30:25;14.50;99.90
19435;DHT22;9853;50.848;4.108;2023-05-10T03:32:26;14.60;99.90
19435;DHT22;9853;50.848;4.108;2023-05-10T03:34:30;14.60;99.90
19435;DHT22;9853;50.848;4.108;2023-05-10T03:36:32;14.70;99.90
19435;DHT22;9853;50.848;4.108;2023-05-10T03:38:33;14.70;99.90
19435;DHT22;9853;50.848;4.108;2023-05-10T03:40:34;14.70;99.90
19435;DHT22;9853;50.848;4.108;2023-05-10T03:42:35;14.70;99.90
19435;DHT22;9853;50.848;4.108;2023-05-10T03:44:36;14.70;99.90
19435;DHT22;9853;50.848;4.108;2023-05-10T03:46:37;14.70;99.90
19435;DHT22;9853;50.848;4.108;2023-05-10T03:48:38;14.70;99.90
19435;DHT22;9853;50.848;4.108;2023-05-10T03:50:39;14.70;99.90
19435;DHT22;9853;50.848;4.108;2023-05-10T03:52:40;14.60;99.90
19435;DHT22;9853;50.848;4.108;2023-05-10T03:54:41;14.40;99.90
19435;DHT22;9853;50.848;4.108;2023-05-10T03:56:42;14.50;99.90
19435;DHT22;9853;50.848;4.108;2023-05-10T03:58:43;14.50;99.90
19435;DHT22;9853;50.848;4.108;2023-05-10T04:00:44;14.60;99.90
19435;DHT22;9853;50.848;4.108;2023-05-10T04:02:47;14.60;99.90
19435;DHT22;9853;50.848;4.108;2023-05-10T04:04:52;14.70;99.90
19435;DHT22;9853;50.848;4.108;2023-05-10T04:06:53;14.70;99.90
19435;DHT22;9853;50.848;4.108;2023-05-10T04:08:55;14.50;99.90
19435;DHT22;9853;50.848;4.108;2023-05-10T04:11:07;14.50;99.90
19435;DHT22;9853;50.848;4.108;2023-05-10T04:13:08;14.30;99.90
19435;DHT22;9853;50.848;4.108;2023-05-10T04:15:09;14.50;99.90
19435;DHT22;9853;50.848;4.108;2023-05-10T04:17:10;14.50;99.90
19435;DHT22;9853;50.848;4.108;2023-05-10T04:19:11;14.30;99.90
19435;DHT22;9853;50.848;4.108;2023-05-10T04:21:12;14.30;99.90
19435;DHT22;9853;50.848;4.108;2023-05-10T04:23:14;14.40;99.90
19435;DHT22;9853;50.848;4.108;2023-05-10T04:25:17;14.50;99.90
19435;DHT22;9853;50.848;4.108;2023-05-10T04:27:17;14.50;99.90
19435;DHT22;9853;50.848;4.108;2023-05-10T04:29:19;14.40;99.90
19435;DHT22;9853;50.848;4.108;2023-05-10T04:31:20;14.30;99.90
19435;DHT22;9853;50.848;4.108;2023-05-10T04:33:22;14.40;99.90
19435;DHT22;9853;50.848;4.108;2023-05-10T04:35:22;14.50;99.90
19435;DHT22;9853;50.848;4.108;2023-05-10T04:37:23;14.40;99.90
19435;DHT22;9853;50.848;4.108;2023-05-10T04:39:24;14.40;99.90
19435;DHT22;9853;50.848;4.108;2023-05-10T04:41:25;14.50;99.90
19435;DHT22;9853;50.848;4.108;2023-05-10T04:43:26;14.40;99.90
19435;DHT22;9853;50.848;4.108;2023-05-10T04:45:27;14.40;99.90
19435;DHT22;9853;50.848;4.108;2023-05-10T04:47:27;14.30;99.90
19435;DHT22;9853;50.848;4.108;2023-05-10T04:49:29;14.20;99.90
19435;DHT22;9853;50.848;4.108;2023-05-10T04:51:30;14.30;99.90
19435;DHT22;9853;50.848;4.108;2023-05-10T04:53:32;14.20;99.90
19435;DHT22;9853;50.848;4.108;2023-05-10T04:55:32;14.20;99.90
19435;DHT22;9853;50.848;4.108;2023-05-10T04:57:33;14.00;99.90
19435;DHT22;9853;50.848;4.108;2023-05-10T04:59:36;14.10;99.90
19435;DHT22;9853;50.848;4.108;2023-05-10T05:01:37;14.20;99.90
19435;DHT22;9853;50.848;4.108;2023-05-10T05:03:38;14.10;99.90
19435;DHT22;9853;50.848;4.108;2023-05-10T05:05:39;14.00;99.90
19435;DHT22;9853;50.848;4.108;2023-05-10T05:07:47;14.00;99.90
19435;DHT22;9853;50.848;4.108;2023-05-10T05:09:51;14.00;99.90
19435;DHT22;9853;50.848;4.108;2023-05-10T05:11:52;14.10;99.90
19435;DHT22;9853;50.848;4.108;2023-05-10T05:13:53;14.10;99.90
19435;DHT22;9853;50.848;4.108;2023-05-10T05:15:54;14.10;99.90
19435;DHT22;9853;50.848;4.108;2023-05-10T05:17:59;14.00;99.90
19435;DHT22;9853;50.848;4.108;2023-05-10T05:20:31;14.00;99.90
19435;DHT22;9853;50.848;4.108;2023-05-10T05:22:42;14.00;99.90
19435;DHT22;9853;50.848;4.108;2023-05-10T05:24:57;14.00;99.90
19435;DHT22;9853;50.848;4.108;2023-05-10T05:31:27;14.00;99.90
19435;DHT22;9853;50.848;4.108;2023-05-10T05:34:08;13.90;99.90
19435;DHT22;9853;50.848;4.108;2023-05-10T05:44:21;14.00;99.90
19435;DHT22;9853;50.848;4.108;2023-05-10T08:30:46;14.30;99.90
19435;DHT22;9853;50.848;4.108;2023-05-10T08:33:01;14.20;99.90
19435;DHT22;9853;50.848;4.108;2023-05-10T08:35:05;14.40;99.90
19435;DHT22;9853;50.848;4.108;2023-05-10T08:37:38;14.50;99.90
19435;DHT22;9853;50.848;4.108;2023-05-10T08:39:57;14.60;99.90
19435;DHT22;9853;50.848;4.108;2023-05-10T08:42:02;14.70;99.90
19435;DHT22;9853;50.848;4.108;2023-05-10T08:44:13;14.70;99.90
19435;DHT22;9853;50.848;4.108;2023-05-10T08:46:26;14.80;99.90
19435;DHT22;9853;50.848;4.108;2023-05-10T11:26:13;16.30;99.90
19435;DHT22;9853;50.848;4.108;2023-05-10T12:14:25;18.00;99.90
19435;DHT22;9853;50.848;4.108;2023-05-10T12:25:08;17.90;99.90
19435;DHT22;9853;50.848;4.108;2023-05-10T12:32:19;17.80;99.90
19435;DHT22;9853;50.848;4.108;2023-05-10T12:35:11;18.00;99.90
19435;DHT22;9853;50.848;4.108;2023-05-10T13:03:32;18.10;99.90
19435;DHT22;9853;50.848;4.108;2023-05-10T13:06:10;18.30;99.90
19435;DHT22;9853;50.848;4.108;2023-05-10T13:08:39;18.30;99.90
19435;DHT22;9853;50.848;4.108;2023-05-10T13:16:13;18.00;99.90
19435;DHT22;9853;50.848;4.108;2023-05-10T13:53:17;18.30;99.90
19435;DHT22;9853;50.848;4.108;2023-05-10T13:59:22;18.30;99.90
19435;DHT22;9853;50.848;4.108;2023-05-10T14:30:33;17.70;99.90
19435;DHT22;9853;50.848;4.108;2023-05-10T14:32:39;17.60;99.90
19435;DHT22;9853;50.848;4.108;2023-05-10T14:34:51;17.30;99.90
19435;DHT22;9853;50.848;4.108;2023-05-10T14:37:16;16.50;99.90
19435;DHT22;9853;50.848;4.108;2023-05-10T14:39:25;16.40;99.90
19435;DHT22;9853;50.848;4.108;2023-05-10T14:41:35;16.50;99.90
19435;DHT22;9853;50.848;4.108;2023-05-10T14:43:41;16.10;99.90
19435;DHT22;9853;50.848;4.108;2023-05-10T14:45:45;15.70;99.90
19435;DHT22;9853;50.848;4.108;2023-05-10T14:47:49;16.00;99.90
19435;DHT22;9853;50.848;4.108;2023-05-10T14:50:01;16.10;99.90
19435;DHT22;9853;50.848;4.108;2023-05-10T14:54:57;16.30;99.90
19435;DHT22;9853;50.848;4.108;2023-05-10T14:56:59;16.30;99.90
19435;DHT22;9853;50.848;4.108;2023-05-10T14:59:59;16.30;99.90
19435;DHT22;9853;50.848;4.108;2023-05-10T15:02:22;16.40;99.90
19435;DHT22;9853;50.848;4.108;2023-05-10T15:04:55;16.50;99.90
19435;DHT22;9853;50.848;4.108;2023-05-10T15:06:56;16.60;99.90
19435;DHT22;9853;50.848;4.108;2023-05-10T15:09:10;16.80;99.90
19435;DHT22;9853;50.848;4.108;2023-05-10T15:11:11;16.70;99.90
19435;DHT22;9853;50.848;4.108;2023-05-10T15:13:16;16.80;99.90
19435;DHT22;9853;50.848;4.108;2023-05-10T15:15:19;16.80;99.90
19435;DHT22;9853;50.848;4.108;2023-05-10T15:17:20;16.90;99.90
19435;DHT22;9853;50.848;4.108;2023-05-10T15:19:36;16.90;99.90
19435;DHT22;9853;50.848;4.108;2023-05-10T15:21:42;17.00;99.90
19435;DHT22;9853;50.848;4.108;2023-05-10T15:24:10;17.00;99.90
19435;DHT22;9853;50.848;4.108;2023-05-10T15:26:15;17.10;99.90
19435;DHT22;9853;50.848;4.108;2023-05-10T15:28:44;17.10;99.90
19435;DHT22;9853;50.848;4.108;2023-05-10T15:30:58;17.10;99.90
19435;DHT22;9853;50.848;4.108;2023-05-10T15:33:16;17.00;99.90
19435;DHT22;9853;50.848;4.108;2023-05-10T15:35:17;17.00;99.90
19435;DHT22;9853;50.848;4.108;2023-05-10T15:37:21;16.90;99.90
19435;DHT22;9853;50.848;4.108;2023-05-10T15:39:25;16.90;99.90
19435;DHT22;9853;50.848;4.108;2023-05-10T15:41:29;16.90;99.90
19435;DHT22;9853;50.848;4.108;2023-05-10T15:43:35;16.90;99.90
19435;DHT22;9853;50.848;4.108;2023-05-10T15:45:36;16.90;99.90
19435;DHT22;9853;50.848;4.108;2023-05-10T15:47:37;17.10;99.90
19435;DHT22;9853;50.848;4.108;2023-05-10T15:49:45;17.10;99.90
19435;DHT22;9853;50.848;4.108;2023-05-10T15:51:53;17.00;99.90
19435;DHT22;9853;50.848;4.108;2023-05-10T15:53:57;17.00;99.90
19435;DHT22;9853;50.848;4.108;2023-05-10T15:56:07;17.10;99.90
19435;DHT22;9853;50.848;4.108;2023-05-10T15:58:25;17.00;99.90
19435;DHT22;9853;50.848;4.108;2023-05-10T16:00:26;17.10;99.90
19435;DHT22;9853;50.848;4.108;2023-05-10T16:02:32;16.80;99.90
19435;DHT22;9853;50.848;4.108;2023-05-10T16:04:59;16.60;99.90
19435;DHT22;9853;50.848;4.108;2023-05-10T16:07:44;16.80;99.90
19435;DHT22;9853;50.848;4.108;2023-05-10T16:09:56;17.00;99.90
19435;DHT22;9853;50.848;4.108;2023-05-10T16:11:59;17.10;99.90
19435;DHT22;9853;50.848;4.108;2023-05-10T16:14:36;17.40;99.90
19435;DHT22;9853;50.848;4.108;2023-05-10T16:20:52;17.20;99.90
19435;DHT22;9853;50.848;4.108;2023-05-10T16:37:30;17.30;99.90
19435;DHT22;9853;50.848;4.108;2023-05-10T16:39:31;17.20;99.90
19435;DHT22;9853;50.848;4.108;2023-05-10T16:41:32;17.20;99.90
19435;DHT22;9853;50.848;4.108;2023-05-10T16:43:34;17.10;99.90
19435;DHT22;9853;50.848;4.108;2023-05-10T16:45:36;17.10;99.90
19435;DHT22;9853;50.848;4.108;2023-05-10T16:47:38;17.20;99.90
19435;DHT22;9853;50.848;4.108;2023-05-10T16:49:39;17.50;99.90
19435;DHT22;9853;50.848;4.108;2023-05-10T16:51:40;17.60;99.90
19435;DHT22;9853;50.848;4.108;2023-05-10T16:53:40;17.80;99.90
19435;DHT22;9853;50.848;4.108;2023-05-10T16:55:41;17.70;99.90
19435;DHT22;9853;50.848;4.108;2023-05-10T16:57:42;17.40;99.90
19435;DHT22;9853;50.848;4.108;2023-05-10T16:59:43;16.90;99.90
19435;DHT22;9853;50.848;4.108;2023-05-10T17:01:43;16.90;99.90
19435;DHT22;9853;50.848;4.108;2023-05-10T17:03:45;17.10;99.90
19435;DHT22;9853;50.848;4.108;2023-05-10T17:05:46;17.10;99.90
19435;DHT22;9853;50.848;4.108;2023-05-10T17:07:47;17.00;99.90
19435;DHT22;9853;50.848;4.108;2023-05-10T17:09:48;16.80;99.90
19435;DHT22;9853;50.848;4.108;2023-05-10T17:11:49;16.60;99.90
19435;DHT22;9853;50.848;4.108;2023-05-10T17:13:50;16.50;99.90
19435;DHT22;9853;50.848;4.108;2023-05-10T17:15:51;16.40;99.90
19435;DHT22;9853;50.848;4.108;2023-05-10T17:17:52;16.10;99.90
19435;DHT22;9853;50.848;4.108;2023-05-10T17:19:53;16.20;99.90
19435;DHT22;9853;50.848;4.108;2023-05-10T17:21:54;16.40;99.90
19435;DHT22;9853;50.848;4.108;2023-05-10T17:23:55;16.50;99.90
19435;DHT22;9853;50.848;4.108;2023-05-10T17:25:55;16.70;99.90
19435;DHT22;9853;50.848;4.108;2023-05-10T17:27:56;16.80;99.90
19435;DHT22;9853;50.848;4.108;2023-05-10T17:29:57;16.70;99.90
19435;DHT22;9853;50.848;4.108;2023-05-10T17:31:58;16.60;99.90
19435;DHT22;9853;50.848;4.108;2023-05-10T17:33:59;16.40;99.90
19435;DHT22;9853;50.848;4.108;2023-05-10T17:36:00;15.80;99.90
19435;DHT22;9853;50.848;4.108;2023-05-10T17:38:01;15.80;99.90
19435;DHT22;9853;50.848;4.108;2023-05-10T17:40:02;15.90;99.90
19435;DHT22;9853;50.848;4.108;2023-05-10T17:42:05;15.50;99.90
19435;DHT22;9853;50.848;4.108;2023-05-10T17:44:06;15.30;99.90
19435;DHT22;9853;50.848;4.108;2023-05-10T17:46:07;14.80;99.90
19435;DHT22;9853;50.848;4.108;2023-05-10T17:48:07;14.90;99.90
19435;DHT22;9853;50.848;4.108;2023-05-10T17:50:10;14.60;99.90
19435;DHT22;9853;50.848;4.108;2023-05-10T17:52:11;14.40;99.90
19435;DHT22;9853;50.848;4.108;2023-05-10T17:54:12;14.30;99.90
19435;DHT22;9853;50.848;4.108;2023-05-10T17:56:13;14.30;99.90
19435;DHT22;9853;50.848;4.108;2023-05-10T17:58:14;14.40;99.90
19435;DHT22;9853;50.848;4.108;2023-05-10T18:00:15;14.40;99.90
19435;DHT22;9853;50.848;4.108;2023-05-10T18:02:16;14.50;99.90
19435;DHT22;9853;50.848;4.108;2023-05-10T18:04:17;14.60;99.90
19435;DHT22;9853;50.848;4.108;2023-05-10T18:06:17;14.60;99.90
19435;DHT22;9853;50.848;4.108;2023-05-10T18:08:18;14.60;99.90
19435;DHT22;9853;50.848;4.108;2023-05-10T18:10:25;14.60;99.90
19435;DHT22;9853;50.848;4.108;2023-05-10T18:12:25;14.50;99.90
19435;DHT22;9853;50.848;4.108;2023-05-10T18:14:26;14.60;99.90
19435;DHT22;9853;50.848;4.108;2023-05-10T18:16:28;14.60;99.90
19435;DHT22;9853;50.848;4.108;2023-05-10T18:18:28;14.80;99.90
19435;DHT22;9853;50.848;4.108;2023-05-10T18:20:30;15.00;99.90
19435;DHT22;9853;50.848;4.108;2023-05-10T18:22:31;15.10;99.90
19435;DHT22;9853;50.848;4.108;2023-05-10T18:24:32;15.10;99.90
19435;DHT22;9853;50.848;4.108;2023-05-10T18:26:33;15.10;99.90
19435;DHT22;9853;50.848;4.108;2023-05-10T18:28:34;15.20;99.90
19435;DHT22;9853;50.848;4.108;2023-05-10T18:30:36;15.20;99.90
19435;DHT22;9853;50.848;4.108;2023-05-10T18:32:37;15.20;99.90
19435;DHT22;9853;50.848;4.108;2023-05-10T18:34:39;15.30;99.90
19435;DHT22;9853;50.848;4.108;2023-05-10T18:36:39;15.30;99.90
19435;DHT22;9853;50.848;4.108;2023-05-10T18:38:43;15.30;99.90
19435;DHT22;9853;50.848;4.108;2023-05-10T18:40:45;15.30;99.90
19435;DHT22;9853;50.848;4.108;2023-05-10T18:42:46;15.40;99.90
19435;DHT22;9853;50.848;4.108;2023-05-10T18:44:49;15.40;99.90
19435;DHT22;9853;50.848;4.108;2023-05-10T18:46:50;15.30;99.90
19435;DHT22;9853;50.848;4.108;2023-05-10T18:48:53;15.30;99.90
19435;DHT22;9853;50.848;4.108;2023-05-10T18:50:54;15.20;99.90
19435;DHT22;9853;50.848;4.108;2023-05-10T18:52:55;15.20;99.90
19435;DHT22;9853;50.848;4.108;2023-05-10T18:54:56;15.20;99.90
19435;DHT22;9853;50.848;4.108;2023-05-10T18:56:57;15.30;99.90
19435;DHT22;9853;50.848;4.108;2023-05-10T18:58:58;15.30;99.90
19435;DHT22;9853;50.848;4.108;2023-05-10T19:00:58;15.30;99.90
19435;DHT22;9853;50.848;4.108;2023-05-10T19:02:59;15.10;99.90
19435;DHT22;9853;50.848;4.108;2023-05-10T19:05:00;15.20;99.90
19435;DHT22;9853;50.848;4.108;2023-05-10T19:07:01;15.20;99.90
19435;DHT22;9853;50.848;4.108;2023-05-10T19:09:03;15.20;99.90
19435;DHT22;9853;50.848;4.108;2023-05-10T19:11:04;15.10;99.90
19435;DHT22;9853;50.848;4.108;2023-05-10T19:13:04;15.10;99.90
19435;DHT22;9853;50.848;4.108;2023-05-10T19:15:06;15.10;99.90
19435;DHT22;9853;50.848;4.108;2023-05-10T19:17:07;15.10;99.90
19435;DHT22;9853;50.848;4.108;2023-05-10T19:19:07;15.00;99.90
19435;DHT22;9853;50.848;4.108;2023-05-10T19:21:09;14.90;99.90
19435;DHT22;9853;50.848;4.108;2023-05-10T19:23:10;15.00;99.90
19435;DHT22;9853;50.848;4.108;2023-05-10T19:25:11;15.10;99.90
19435;DHT22;9853;50.848;4.108;2023-05-10T19:27:12;15.10;99.90
19435;DHT22;9853;50.848;4.108;2023-05-10T19:29:13;15.20;99.90
19435;DHT22;9853;50.848;4.108;2023-05-10T19:31:14;15.10;99.90
19435;DHT22;9853;50.848;4.108;2023-05-10T19:33:16;15.00;99.90
19435;DHT22;9853;50.848;4.108;2023-05-10T19:35:17;14.80;99.90
19435;DHT22;9853;50.848;4.108;2023-05-10T19:37:18;14.70;99.90
19435;DHT22;9853;50.848;4.108;2023-05-10T19:39:19;14.70;99.90
19435;DHT22;9853;50.848;4.108;2023-05-10T19:41:20;14.60;99.90
19435;DHT22;9853;50.848;4.108;2023-05-10T19:43:21;14.60;99.90
19435;DHT22;9853;50.848;4.108;2023-05-10T19:45:22;14.40;99.90
19435;DHT22;9853;50.848;4.108;2023-05-10T19:47:23;14.40;99.90
19435;DHT22;9853;50.848;4.108;2023-05-10T19:49:23;14.50;99.90
19435;DHT22;9853;50.848;4.108;2023-05-10T19:51:24;14.70;99.90
19435;DHT22;9853;50.848;4.108;2023-05-10T19:53:26;14.90;99.90
19435;DHT22;9853;50.848;4.108;2023-05-10T19:55:28;15.00;99.90
19435;DHT22;9853;50.848;4.108;2023-05-10T19:57:30;15.10;99.90
19435;DHT22;9853;50.848;4.108;2023-05-10T19:59:31;15.00;99.90
19435;DHT22;9853;50.848;4.108;2023-05-10T20:01:31;14.90;99.90
19435;DHT22;9853;50.848;4.108;2023-05-10T20:03:33;15.00;99.90
19435;DHT22;9853;50.848;4.108;2023-05-10T20:05:34;14.90;99.90
19435;DHT22;9853;50.848;4.108;2023-05-10T20:07:35;14.90;99.90
19435;DHT22;9853;50.848;4.108;2023-05-10T20:09:36;15.00;99.90
19435;DHT22;9853;50.848;4.108;2023-05-10T20:11:37;14.90;99.90
19435;DHT22;9853;50.848;4.108;2023-05-10T20:13:38;14.80;99.90
19435;DHT22;9853;50.848;4.108;2023-05-10T20:15:38;14.80;99.90
19435;DHT22;9853;50.848;4.108;2023-05-10T20:17:39;14.90;99.90
19435;DHT22;9853;50.848;4.108;2023-05-10T20:19:40;14.90;99.90
19435;DHT22;9853;50.848;4.108;2023-05-10T20:21:41;15.00;99.90
19435;DHT22;9853;50.848;4.108;2023-05-10T20:23:42;15.00;99.90
19435;DHT22;9853;50.848;4.108;2023-05-10T20:25:43;15.00;99.90
19435;DHT22;9853;50.848;4.108;2023-05-10T20:27:44;15.10;99.90
19435;DHT22;9853;50.848;4.108;2023-05-10T20:29:45;15.20;99.90
19435;DHT22;9853;50.848;4.108;2023-05-10T20:31:45;15.10;99.90
19435;DHT22;9853;50.848;4.108;2023-05-10T20:33:46;15.10;99.90
19435;DHT22;9853;50.848;4.108;2023-05-10T20:35:47;15.00;99.90
19435;DHT22;9853;50.848;4.108;2023-05-10T20:37:49;15.10;99.90
19435;DHT22;9853;50.848;4.108;2023-05-10T20:39:50;15.30;99.90
19435;DHT22;9853;50.848;4.108;2023-05-10T20:41:51;15.20;99.90
19435;DHT22;9853;50.848;4.108;2023-05-10T20:43:54;15.10;99.90
19435;DHT22;9853;50.848;4.108;2023-05-10T20:45:55;15.10;99.90
19435;DHT22;9853;50.848;4.108;2023-05-10T20:47:55;15.10;99.90
19435;DHT22;9853;50.848;4.108;2023-05-10T20:49:57;15.10;99.90
19435;DHT22;9853;50.848;4.108;2023-05-10T20:51:57;15.10;99.90
19435;DHT22;9853;50.848;4.108;2023-05-10T20:53:58;15.00;99.90
19435;DHT22;9853;50.848;4.108;2023-05-10T20:56:01;15.00;99.90
19435;DHT22;9853;50.848;4.108;2023-05-10T20:58:02;15.00;99.90
19435;DHT22;9853;50.848;4.108;2023-05-10T21:00:03;14.90;99.90
19435;DHT22;9853;50.848;4.108;2023-05-10T21:02:05;14.90;99.90
19435;DHT22;9853;50.848;4.108;2023-05-10T21:04:06;14.90;99.90
19435;DHT22;9853;50.848;4.108;2023-05-10T21:06:07;15.00;99.90
19435;DHT22;9853;50.848;4.108;2023-05-10T21:08:07;15.00;99.90
19435;DHT22;9853;50.848;4.108;2023-05-10T21:10:10;14.90;99.90
19435;DHT22;9853;50.848;4.108;2023-05-10T21:12:11;14.80;99.90
19435;DHT22;9853;50.848;4.108;2023-05-10T21:14:12;14.90;99.90
19435;DHT22;9853;50.848;4.108;2023-05-10T21:16:13;14.90;99.90
19435;DHT22;9853;50.848;4.108;2023-05-10T21:18:14;15.00;99.90
19435;DHT22;9853;50.848;4.108;2023-05-10T21:22:40;15.00;99.90
19435;DHT22;9853;50.848;4.108;2023-05-10T21:24:40;14.90;99.90
19435;DHT22;9853;50.848;4.108;2023-05-10T21:26:41;15.00;99.90
19435;DHT22;9853;50.848;4.108;2023-05-10T21:28:43;14.90;99.90
19435;DHT22;9853;50.848;4.108;2023-05-10T21:30:44;14.90;99.90
19435;DHT22;9853;50.848;4.108;2023-05-10T21:32:45;14.90;99.90
19435;DHT22;9853;50.848;4.108;2023-05-10T21:34:46;14.90;99.90
19435;DHT22;9853;50.848;4.108;2023-05-10T21:36:46;15.00;99.90
19435;DHT22;9853;50.848;4.108;2023-05-10T21:38:47;15.00;99.90
19435;DHT22;9853;50.848;4.108;2023-05-10T21:40:50;15.00;99.90
19435;DHT22;9853;50.848;4.108;2023-05-10T21:42:50;15.00;99.90
19435;DHT22;9853;50.848;4.108;2023-05-10T21:44:51;15.00;99.90
19435;DHT22;9853;50.848;4.108;2023-05-10T21:46:55;14.80;99.90
19435;DHT22;9853;50.848;4.108;2023-05-10T21:48:55;14.60;99.90
19435;DHT22;9853;50.848;4.108;2023-05-10T21:50:56;14.50;99.90
19435;DHT22;9853;50.848;4.108;2023-05-10T21:52:58;14.40;99.90
19435;DHT22;9853;50.848;4.108;2023-05-10T21:54:59;14.50;99.90
19435;DHT22;9853;50.848;4.108;2023-05-10T21:56:59;14.50;99.90
19435;DHT22;9853;50.848;4.108;2023-05-10T21:59:00;14.60;99.90
19435;DHT22;9853;50.848;4.108;2023-05-10T22:01:01;14.60;99.90
19435;DHT22;9853;50.848;4.108;2023-05-10T22:03:02;14.60;99.90
19435;DHT22;9853;50.848;4.108;2023-05-10T22:05:03;14.50;99.90
19435;DHT22;9853;50.848;4.108;2023-05-10T22:07:04;14.40;99.90
19435;DHT22;9853;50.848;4.108;2023-05-10T22:09:05;14.30;99.90